Time;durP1;ratioP1;P1;durP2;ratioP2;P2;SDS_P1;SDS_P2;PMS_P1;PMS_P2;Temp;Humidity;BMP_temperature;BMP_pressure;BME280_temperature;BME280_humidity;BME280_pressure;Samples;Min_cycle;Max_cycle;Signal;HPM_P1;HPM_P2
2022/12/02 00:01:49;;;;;;;1.13;0.98;;;8.80;99.90;;;;;;5051279;28;20025;-74
2022/12/02 00:04:20;;;;;;;1.25;1.25;;;8.80;99.90;;;;;;5051400;28;20104;-73
2022/12/02 00:06:45;;;;;;;0.38;0.38;;;8.80;99.90;;;;;;5051890;28;20025;-73
2022/12/02 00:09:18;;;;;;;2.83;1.08;;;8.70;99.90;;;;;;5051415;28;20054;-75
2022/12/02 00:11:45;;;;;;;0.75;0.75;;;8.70;99.90;;;;;;5050926;28;20492;-73
2022/12/02 00:14:20;;;;;;;0.40;0.40;;;8.70;99.90;;;;;;5051173;28;20065;-74
2022/12/02 00:16:46;;;;;;;0.40;0.40;;;8.70;99.90;;;;;;5051416;28;20025;-72
2022/12/02 00:19:12;;;;;;;1.00;1.00;;;8.60;99.90;;;;;;5049828;28;20473;-74
2022/12/02 00:21:38;;;;;;;0.28;0.28;;;8.70;99.90;;;;;;5051039;28;20079;-73
2022/12/02 00:24:04;;;;;;;0.20;0.20;;;8.70;99.90;;;;;;5050784;28;20032;-73
2022/12/02 00:26:29;;;;;;;0.30;0.30;;;8.60;99.90;;;;;;5051019;28;20040;-73
2022/12/02 00:28:55;;;;;;;1.02;1.02;;;8.60;99.90;;;;;;5049696;28;20032;-72
2022/12/02 00:31:21;;;;;;;1.20;1.20;;;8.60;99.90;;;;;;5051018;28;20059;-73
2022/12/02 00:33:46;;;;;;;0.47;0.47;;;8.60;99.90;;;;;;5050891;28;20060;-73
2022/12/02 00:36:12;;;;;;;0.52;0.52;;;8.50;99.90;;;;;;5050903;28;20033;-74
2022/12/02 00:38:38;;;;;;;0.20;0.20;;;8.50;99.90;;;;;;5050806;28;20037;-72
2022/12/02 00:41:03;;;;;;;1.38;1.38;;;8.50;99.90;;;;;;5050942;28;20033;-73
2022/12/02 00:46:31;;;;;;;0.50;0.50;;;8.50;99.90;;;;;;5050936;28;20051;-73
2022/12/02 00:49:08;;;;;;;0.30;0.30;;;8.40;99.90;;;;;;5050781;28;20092;-74
2022/12/02 00:51:35;;;;;;;1.40;1.30;;;8.40;99.90;;;;;;5050834;28;20048;-73
2022/12/02 00:54:01;;;;;;;0.40;0.40;;;8.40;99.90;;;;;;5050418;28;20667;-72
2022/12/02 00:56:28;;;;;;;0.55;0.55;;;;;;;;;;5050710;28;20028;-73
2022/12/02 00:58:54;;;;;;;0.40;0.40;;;;;;;;;;5050685;28;20535;-73
2022/12/02 01:01:20;;;;;;;0.90;0.90;;;;;;;;;;5050720;28;20025;-74
2022/12/02 01:03:46;;;;;;;0.28;0.28;;;;;;;;;;5050727;28;20029;-73
2022/12/02 01:06:12;;;;;;;0.38;0.38;;;;;;;;;;5050498;28;20378;-74
2022/12/02 01:08:38;;;;;;;0.82;0.82;;;;;;;;;;5050781;28;20029;-74
2022/12/02 01:11:04;;;;;;;0.55;0.55;;;8.40;99.90;;;;;;5050767;28;20033;-73
2022/12/02 01:13:29;;;;;;;0.30;0.30;;;8.50;99.90;;;;;;5050725;28;20579;-73
2022/12/02 01:15:55;;;;;;;1.50;1.50;;;8.40;99.90;;;;;;5050307;28;20535;-72
2022/12/02 01:18:21;;;;;;;1.30;1.27;;;8.40;99.90;;;;;;5049156;28;20029;-73
2022/12/02 01:20:47;;;;;;;0.65;0.65;;;8.40;99.90;;;;;;5050630;28;20049;-73
2022/12/02 01:23:13;;;;;;;0.30;0.30;;;8.40;1.00;;;;;;5051483;28;20649;-73
2022/12/02 01:25:39;;;;;;;0.50;0.50;;;8.40;1.00;;;;;;5054055;28;20526;-72
2022/12/02 01:28:05;;;;;;;1.85;1.75;;;8.40;1.00;;;;;;5053900;28;20021;-72
2022/12/02 01:30:30;;;;;;;3.42;2.15;;;8.30;1.00;;;;;;5054054;28;20032;-73
2022/12/02 01:32:56;;;;;;;0.70;0.70;;;8.30;1.00;;;;;;5053963;28;20103;-73
2022/12/02 01:35:22;;;;;;;1.02;1.02;;;8.30;1.00;;;;;;5054095;28;20112;-73
2022/12/02 01:37:47;;;;;;;0.80;0.80;;;8.30;1.00;;;;;;5053948;28;20442;-73
2022/12/02 01:40:14;;;;;;;0.30;0.30;;;8.30;1.00;;;;;;5053836;28;20028;-72
2022/12/02 01:42:40;;;;;;;0.30;0.30;;;8.30;1.00;;;;;;5053664;28;20025;-73
2022/12/02 01:45:07;;;;;;;1.70;1.60;;;8.30;1.00;;;;;;5053704;28;20090;-73
2022/12/02 01:47:34;;;;;;;0.50;0.50;;;8.40;1.00;;;;;;5053823;28;20108;-73
2022/12/02 01:50:00;;;;;;;1.13;1.10;;;8.40;1.00;;;;;;5053661;28;20022;-74
2022/12/02 01:52:26;;;;;;;0.30;0.30;;;8.40;1.00;;;;;;5053797;28;20079;-73
2022/12/02 01:54:52;;;;;;;0.40;0.40;;;8.40;1.00;;;;;;5053676;28;20052;-74
2022/12/02 01:57:24;;;;;;;0.40;0.40;;;8.40;1.00;;;;;;5053435;28;20497;-73
2022/12/02 01:59:50;;;;;;;;;;;8.40;1.00;;;;;;5054015;28;20036;-73
2022/12/02 02:02:43;;;;;;;2.20;2.10;;;8.40;1.00;;;;;;5053554;28;19905;-73
2022/12/02 02:05:10;;;;;;;1.80;1.75;;;8.40;1.00;;;;;;5051367;28;20041;-72
2022/12/02 02:07:38;;;;;;;0.20;0.20;;;8.40;1.00;;;;;;5053331;28;20021;-73
2022/12/02 02:10:05;;;;;;;0.70;0.70;;;8.30;1.00;;;;;;5053209;28;20324;-72
2022/12/02 02:12:31;;;;;;;0.30;0.30;;;8.20;1.00;;;;;;5053239;28;20409;-73
2022/12/02 02:14:57;;;;;;;0.57;0.57;;;8.20;1.00;;;;;;5051625;28;20048;-74
2022/12/02 02:17:23;;;;;;;0.98;0.98;;;8.10;1.00;;;;;;5053325;28;20477;-72
2022/12/02 02:19:49;;;;;;;1.38;1.27;;;7.90;1.00;;;;;;5052984;28;20516;-72
2022/12/02 02:22:46;;;;;;;0.30;0.30;;;7.90;1.00;;;;;;5052816;28;20036;-72
2022/12/02 02:25:14;;;;;;;0.80;0.80;;;8.10;45.40;;;;;;5052456;28;20632;-73
2022/12/02 02:27:42;;;;;;;0.47;0.47;;;8.10;80.10;;;;;;5052897;28;20025;-73
2022/12/02 02:30:08;;;;;;;0.90;0.90;;;8.20;99.90;;;;;;5052805;28;20155;-73
2022/12/02 02:32:35;;;;;;;1.63;1.52;;;8.30;99.90;;;;;;5052990;28;20060;-74
2022/12/02 02:35:01;;;;;;;0.32;0.32;;;8.30;99.90;;;;;;5052890;28;20493;-72
2022/12/02 02:37:27;;;;;;;1.95;1.15;;;8.30;99.90;;;;;;5052703;28;20021;-73
2022/12/02 02:39:53;;;;;;;0.63;0.63;;;8.30;99.90;;;;;;5052510;28;20043;-72
2022/12/02 02:42:18;;;;;;;2.15;1.38;;;8.40;99.90;;;;;;5052700;28;20040;-73
2022/12/02 02:44:44;;;;;;;0.30;0.30;;;8.40;99.90;;;;;;5052445;28;20047;-72
2022/12/02 02:47:10;;;;;;;1.30;1.27;;;8.50;99.90;;;;;;5052671;28;20100;-73
2022/12/02 02:49:36;;;;;;;0.47;0.47;;;8.50;99.90;;;;;;5052387;28;20029;-73
2022/12/02 02:52:01;;;;;;;12.48;3.30;;;8.60;99.90;;;;;;5052322;28;20065;-72
2022/12/02 02:54:27;;;;;;;0.93;0.93;;;8.60;99.90;;;;;;5051227;28;20017;-73
2022/12/02 02:56:53;;;;;;;1.85;1.75;;;8.60;99.90;;;;;;5052334;28;20488;-73
2022/12/02 02:59:19;;;;;;;0.68;0.68;;;8.70;99.90;;;;;;5052431;28;20565;-72
2022/12/02 03:01:46;;;;;;;0.20;0.20;;;8.70;99.90;;;;;;5051110;28;20087;-72
2022/12/02 03:04:15;;;;;;;0.30;0.30;;;8.70;99.90;;;;;;5052390;28;20080;-72
2022/12/02 03:06:42;;;;;;;0.40;0.40;;;8.70;99.90;;;;;;5051875;28;20032;-73
2022/12/02 03:09:10;;;;;;;0.60;0.60;;;8.80;99.90;;;;;;5052232;28;20029;-73
2022/12/02 03:11:38;;;;;;;0.20;0.20;;;8.80;90.80;;;;;;5052106;28;20025;-73
2022/12/02 03:14:06;;;;;;;1.30;0.88;;;8.80;67.20;;;;;;5051936;28;20439;-73
2022/12/02 03:16:32;;;;;;;0.30;0.30;;;8.70;46.60;;;;;;5051904;28;20053;-73
2022/12/02 03:18:59;;;;;;;0.43;0.43;;;8.70;38.10;;;;;;5052013;28;20231;-73
2022/12/02 03:21:26;;;;;;;0.50;0.50;;;8.70;29.00;;;;;;5051945;28;20044;-72
2022/12/02 03:23:54;;;;;;;0.75;0.75;;;8.60;30.60;;;;;;5051735;28;20611;-72
2022/12/02 03:26:20;;;;;;;0.73;0.73;;;8.60;30.50;;;;;;5051721;28;20037;-73
2022/12/02 03:28:47;;;;;;;0.55;0.55;;;8.60;26.10;;;;;;5051701;28;20021;-73
2022/12/02 03:31:13;;;;;;;2.88;2.67;;;8.60;25.60;;;;;;5051869;28;20032;-73
2022/12/02 03:33:40;;;;;;;0.40;0.40;;;8.60;22.50;;;;;;5051592;28;20033;-74
2022/12/02 03:36:06;;;;;;;0.30;0.30;;;8.60;22.60;;;;;;5051696;28;20017;-73
2022/12/02 03:38:32;;;;;;;6.18;5.72;;;8.60;31.00;;;;;;5051668;28;20025;-73
2022/12/02 03:41:00;;;;;;;2.92;2.80;;;8.60;19.10;;;;;;5050136;28;20029;-73
2022/12/02 03:43:26;;;;;;;2.45;2.25;;;8.60;17.50;;;;;;5051695;28;20025;-72
2022/12/02 03:45:51;;;;;;;0.50;0.50;;;8.60;12.70;;;;;;5050959;28;20473;-73
2022/12/02 03:48:20;;;;;;;0.20;0.20;;;8.60;13.10;;;;;;5051383;28;20021;-73
2022/12/02 03:50:48;;;;;;;0.65;0.65;;;8.60;13.70;;;;;;5051430;28;20021;-73
2022/12/02 03:53:14;;;;;;;0.40;0.40;;;8.60;13.10;;;;;;5051505;28;20017;-74
2022/12/02 03:55:39;;;;;;;0.57;0.57;;;8.60;8.60;;;;;;5051451;28;20079;-73
2022/12/02 03:58:06;;;;;;;0.30;0.30;;;8.60;8.00;;;;;;5051354;28;20678;-74
2022/12/02 04:00:34;;;;;;;0.38;0.38;;;8.60;5.00;;;;;;5051212;28;20100;-73
2022/12/02 04:03:00;;;;;;;0.30;0.30;;;8.60;2.80;;;;;;5051527;28;20083;-73
2022/12/02 04:05:25;;;;;;;0.50;0.50;;;8.60;5.70;;;;;;5051430;28;20080;-73
2022/12/02 04:07:51;;;;;;;0.60;0.60;;;8.60;1.00;;;;;;5051232;28;20493;-72
2022/12/02 04:10:17;;;;;;;0.55;0.55;;;8.60;1.00;;;;;;5050908;28;20477;-73
2022/12/02 04:12:42;;;;;;;0.60;0.60;;;8.60;1.00;;;;;;5051168;28;20028;-72
2022/12/02 04:15:09;;;;;;;0.30;0.30;;;8.60;1.00;;;;;;5050890;28;20090;-72
2022/12/02 04:17:34;;;;;;;0.40;0.40;;;8.50;1.00;;;;;;5051227;28;20021;-73
2022/12/02 04:20:00;;;;;;;0.30;0.30;;;8.50;1.00;;;;;;5051185;28;20462;-72
2022/12/02 04:22:26;;;;;;;0.77;0.77;;;8.50;1.00;;;;;;5050912;28;20110;-72
2022/12/02 04:24:52;;;;;;;0.35;0.35;;;8.50;1.00;;;;;;5050860;28;20033;-73
2022/12/02 04:27:17;;;;;;;0.63;0.63;;;8.50;1.00;;;;;;5051003;28;20178;-73
2022/12/02 04:29:43;;;;;;;0.40;0.40;;;8.50;1.00;;;;;;5050857;28;20056;-73
2022/12/02 04:32:09;;;;;;;6.30;5.93;;;8.50;1.00;;;;;;5050832;28;20647;-72
2022/12/02 04:34:34;;;;;;;0.30;0.30;;;8.50;1.00;;;;;;5050884;28;20021;-72
2022/12/02 04:37:00;;;;;;;3.05;2.95;;;8.50;1.00;;;;;;5049754;28;20033;-72
2022/12/02 04:39:25;;;;;;;0.30;0.30;;;8.50;1.00;;;;;;5050895;28;20025;-72
2022/12/02 04:41:52;;;;;;;0.32;0.32;;;8.60;1.00;;;;;;5050833;28;20025;-73
2022/12/02 04:44:17;;;;;;;0.30;0.30;;;8.50;1.00;;;;;;5050736;28;20029;-72
2022/12/02 04:46:43;;;;;;;0.30;0.30;;;8.50;1.00;;;;;;5050747;28;20394;-73
2022/12/02 04:49:09;;;;;;;0.40;0.40;;;8.50;1.00;;;;;;5050951;28;20096;-72
2022/12/02 04:51:34;;;;;;;0.38;0.38;;;8.50;1.00;;;;;;5049516;28;20021;-72
2022/12/02 04:54:00;;;;;;;0.30;0.30;;;8.40;1.00;;;;;;5050600;28;20074;-73
2022/12/02 04:56:25;;;;;;;2.97;2.78;;;8.40;1.00;;;;;;5050830;28;20040;-73
2022/12/02 04:58:51;;;;;;;0.75;0.75;;;8.30;1.00;;;;;;5053996;28;20025;-73
2022/12/02 05:01:17;;;;;;;2.03;1.92;;;8.30;1.00;;;;;;5054687;28;20020;-72
2022/12/02 05:03:42;;;;;;;0.30;0.30;;;8.10;1.00;;;;;;5054416;28;20032;-73
2022/12/02 05:06:08;;;;;;;0.40;0.40;;;8.00;1.00;;;;;;5053193;28;20033;-72
2022/12/02 05:08:34;;;;;;;2.33;2.15;;;7.90;1.00;;;;;;5054434;28;20024;-73
2022/12/02 05:10:59;;;;;;;0.20;0.20;;;7.70;1.00;;;;;;5054556;28;20113;-72
2022/12/02 05:13:25;;;;;;;0.35;0.35;;;7.60;1.00;;;;;;5054234;28;20100;-73
2022/12/02 05:15:51;;;;;;;2.88;2.72;;;7.50;4.00;;;;;;5054046;28;20075;-75
2022/12/02 05:18:16;;;;;;;0.55;0.55;;;7.40;7.60;;;;;;5054329;28;20025;-72
2022/12/02 05:20:42;;;;;;;0.30;0.30;;;7.40;33.80;;;;;;5054332;28;20558;-72
2022/12/02 05:23:08;;;;;;;0.35;0.35;;;7.40;65.70;;;;;;5052894;28;20033;-72
2022/12/02 05:25:34;;;;;;;0.80;0.80;;;7.40;93.70;;;;;;5054069;28;20028;-73
2022/12/02 05:28:00;;;;;;;0.25;0.25;;;7.40;99.90;;;;;;5053745;28;20502;-72
2022/12/02 05:30:25;;;;;;;0.57;0.57;;;7.40;99.90;;;;;;5054055;28;20071;-73
2022/12/02 05:32:51;;;;;;;0.95;0.95;;;7.40;99.90;;;;;;5054180;28;20047;-72
2022/12/02 05:35:17;;;;;;;0.40;0.40;;;7.40;99.90;;;;;;5054153;28;20520;-73
2022/12/02 05:37:42;;;;;;;1.83;1.75;;;7.20;99.90;;;;;;5052732;28;20021;-73
2022/12/02 05:40:09;;;;;;;0.45;0.45;;;7.20;99.90;;;;;;5053808;28;20111;-72
2022/12/02 05:42:34;;;;;;;1.50;1.50;;;7.20;99.90;;;;;;5053703;28;20025;-71
2022/12/02 05:45:06;;;;;;;0.30;0.30;;;7.20;99.90;;;;;;5053753;28;20075;-73
2022/12/02 05:47:31;;;;;;;0.43;0.43;;;7.20;99.90;;;;;;5053867;28;20021;-73
2022/12/02 05:49:59;;;;;;;1.75;1.35;;;7.30;99.90;;;;;;5052291;28;20029;-72
2022/12/02 05:52:26;;;;;;;0.30;0.30;;;7.30;99.90;;;;;;5053603;28;20017;-73
2022/12/02 05:54:55;;;;;;;0.60;0.60;;;7.40;99.90;;;;;;5053587;28;20485;-74
2022/12/02 05:57:29;;;;;;;0.98;0.98;;;7.30;99.90;;;;;;5051812;28;20040;-72
2022/12/02 06:00:11;;;;;;;0.40;0.40;;;7.30;99.90;;;;;;5052698;28;20660;-72
2022/12/02 06:02:42;;;;;;;0.30;0.30;;;7.30;99.90;;;;;;5053502;28;20076;-72
2022/12/02 06:05:41;;;;;;;0.40;0.40;;;7.30;99.90;;;;;;5051791;28;20100;-74
2022/12/02 06:08:20;;;;;;;0.40;0.40;;;7.30;99.90;;;;;;5051300;28;20033;-72
2022/12/02 06:10:51;;;;;;;0.88;0.88;;;7.30;99.90;;;;;;5051794;28;20025;-72
2022/12/02 06:13:20;;;;;;;0.40;0.40;;;7.20;99.90;;;;;;5052571;28;20052;-73
2022/12/02 06:15:47;;;;;;;2.03;1.85;;;7.20;99.90;;;;;;5052790;28;20095;-73
2022/12/02 06:18:15;;;;;;;0.57;0.38;;;7.20;99.90;;;;;;5052755;28;20079;-73
2022/12/02 06:20:41;;;;;;;1.20;1.20;;;7.30;99.90;;;;;;5053076;28;20075;-74
2022/12/02 06:23:16;;;;;;;0.22;0.22;;;7.20;99.90;;;;;;5052720;28;20017;-71
2022/12/02 06:25:44;;;;;;;0.52;0.52;;;7.20;99.90;;;;;;5052518;28;20493;-71
2022/12/02 06:28:13;;;;;;;0.40;0.40;;;7.20;99.90;;;;;;5053044;28;20025;-73
2022/12/02 06:30:39;;;;;;;0.43;0.43;;;7.20;99.90;;;;;;5052724;28;20052;-72
2022/12/02 06:33:23;;;;;;;0.63;0.63;;;7.20;99.90;;;;;;5042023;28;20543;-72
2022/12/02 06:35:49;;;;;;;0.80;0.80;;;7.20;99.90;;;;;;5049495;28;20037;-72
2022/12/02 06:38:29;;;;;;;1.67;1.25;;;7.20;99.90;;;;;;5044902;28;20100;-72
2022/12/02 06:40:59;;;;;;;0.30;0.30;;;7.10;99.90;;;;;;5052634;28;20111;-73
2022/12/02 06:43:29;;;;;;;1.25;1.25;;;7.10;99.90;;;;;;5047557;28;20484;-74
2022/12/02 06:45:55;;;;;;;0.30;0.30;;;7.10;99.90;;;;;;5032501;28;20389;-75
2022/12/02 06:48:35;;;;;;;1.02;0.95;;;7.00;99.90;;;;;;5032934;28;20491;-73
2022/12/02 06:51:15;;;;;;;0.30;0.30;;;7.10;99.90;;;;;;5032417;28;20462;-74
2022/12/02 06:53:41;;;;;;;0.40;0.40;;;7.10;99.90;;;;;;5039838;28;20033;-72
2022/12/02 06:56:10;;;;;;;0.30;0.30;;;7.10;86.30;;;;;;5048135;28;20092;-73
2022/12/02 06:58:54;;;;;;;0.35;0.35;;;7.10;77.00;;;;;;5045198;28;20087;-73
2022/12/02 07:01:21;;;;;;;0.28;0.28;;;7.10;67.60;;;;;;5034726;28;20025;-73
2022/12/02 07:04:07;;;;;;;1.63;1.52;;;7.10;52.90;;;;;;5049095;28;20074;-73
2022/12/02 07:06:39;;;;;;;0.35;0.35;;;7.10;48.90;;;;;;5039762;28;20095;-73
2022/12/02 07:09:18;;;;;;;1.42;1.15;;;7.00;44.10;;;;;;5045190;28;20017;-73
2022/12/02 07:11:51;;;;;;;0.90;0.90;;;7.00;42.30;;;;;;5030316;28;20026;-74
2022/12/02 07:14:37;;;;;;;5.32;0.57;;;7.00;43.60;;;;;;5028702;28;20056;-74
2022/12/02 07:17:18;;;;;;;0.68;0.68;;;7.00;45.50;;;;;;5031580;28;20500;-73
2022/12/02 07:19:45;;;;;;;1.48;0.85;;;7.20;56.80;;;;;;5028071;28;20056;-73
2022/12/02 07:22:17;;;;;;;0.30;0.30;;;7.20;46.70;;;;;;5030141;28;20025;-75
2022/12/02 07:24:56;;;;;;;0.73;0.73;;;7.20;53.40;;;;;;5029694;28;20025;-74
2022/12/02 07:27:25;;;;;;;0.55;0.52;;;7.20;42.40;;;;;;5033836;28;20041;-75
2022/12/02 07:29:52;;;;;;;5.38;4.30;;;7.20;32.30;;;;;;5041865;28;20075;-74
2022/12/02 07:32:18;;;;;;;2.65;2.50;;;7.20;28.80;;;;;;5040631;28;20036;-74
2022/12/02 07:34:44;;;;;;;0.30;0.30;;;7.20;24.00;;;;;;5031913;28;20018;-73
2022/12/02 07:37:09;;;;;;;0.40;0.40;;;7.30;22.40;;;;;;5031630;28;20048;-74
2022/12/02 07:39:35;;;;;;;0.20;0.20;;;7.30;14.40;;;;;;5031847;28;20064;-73
2022/12/02 07:42:01;;;;;;;1.00;1.00;;;7.40;1.00;;;;;;5031771;28;20557;-74
2022/12/02 07:44:27;;;;;;;0.85;0.75;;;7.30;1.00;;;;;;5031450;28;20493;-76
2022/12/02 07:46:52;;;;;;;7.22;2.03;;;7.30;1.00;;;;;;5042434;28;20062;-75
2022/12/02 07:49:18;;;;;;;0.60;0.60;;;7.30;1.00;;;;;;5032369;28;20286;-74
2022/12/02 07:51:44;;;;;;;0.75;0.75;;;7.20;1.00;;;;;;5031427;28;20033;-74
2022/12/02 07:54:10;;;;;;;0.35;0.35;;;7.20;1.00;;;;;;5031344;28;20619;-75
2022/12/02 07:56:35;;;;;;;0.32;0.32;;;7.20;1.00;;;;;;5032108;28;20036;-75
2022/12/02 07:59:01;;;;;;;0.40;0.40;;;7.20;1.00;;;;;;5041464;28;20053;-75
2022/12/02 08:01:27;;;;;;;5.43;1.40;;;7.20;1.00;;;;;;5035330;28;20382;-77
2022/12/02 08:03:53;;;;;;;1.15;1.15;;;7.20;1.00;;;;;;5038570;28;20029;-75
2022/12/02 08:06:19;;;;;;;4.38;2.38;;;7.20;1.00;;;;;;5051039;28;20261;-75
2022/12/02 08:08:44;;;;;;;0.70;0.70;;;7.20;1.00;;;;;;5051280;28;20036;-74
2022/12/02 08:11:10;;;;;;;0.30;0.30;;;7.20;1.00;;;;;;5051210;28;20086;-74
2022/12/02 08:13:36;;;;;;;0.35;0.35;;;7.30;1.00;;;;;;5051027;28;20025;-74
2022/12/02 08:16:01;;;;;;;1.98;1.85;;;7.30;1.00;;;;;;5047626;28;20441;-77
2022/12/02 08:18:27;;;;;;;0.30;0.30;;;7.30;1.00;;;;;;5050976;28;20032;-76
2022/12/02 08:20:53;;;;;;;0.30;0.30;;;7.50;1.00;;;;;;5033326;28;20439;-77
2022/12/02 08:23:18;;;;;;;0.47;0.47;;;7.50;1.00;;;;;;5030999;28;20112;-77
2022/12/02 08:25:44;;;;;;;0.40;0.40;;;7.60;1.00;;;;;;5030894;28;20096;-76
2022/12/02 08:28:10;;;;;;;0.40;0.40;;;7.60;1.00;;;;;;5030695;28;20040;-76
2022/12/02 08:30:35;;;;;;;0.30;0.30;;;7.70;1.00;;;;;;5030877;28;20017;-76
2022/12/02 08:33:01;;;;;;;0.40;0.40;;;7.70;1.00;;;;;;5034590;28;20040;-76
2022/12/02 08:35:27;;;;;;;0.95;0.95;;;7.80;1.00;;;;;;5034934;28;20033;-76
2022/12/02 08:37:52;;;;;;;0.30;0.30;;;7.90;1.00;;;;;;5034855;28;20513;-76
2022/12/02 08:40:18;;;;;;;0.30;0.30;;;7.90;99.90;;;;;;5034951;28;20485;-76
2022/12/02 08:42:44;;;;;;;0.32;0.32;;;7.90;99.90;;;;;;5034964;28;20426;-78
2022/12/02 08:45:09;;;;;;;1.85;1.75;;;7.90;99.90;;;;;;5034791;28;20037;-77
2022/12/02 08:47:35;;;;;;;1.00;0.85;;;7.90;99.90;;;;;;5034936;28;20031;-76
2022/12/02 08:50:01;;;;;;;1.10;1.10;;;7.90;99.90;;;;;;5035471;28;20417;-76
2022/12/02 08:52:27;;;;;;;0.30;0.30;;;7.90;99.90;;;;;;5034528;28;20032;-76
2022/12/02 08:54:52;;;;;;;0.30;0.30;;;7.90;99.90;;;;;;5034619;28;20100;-76
2022/12/02 08:57:18;;;;;;;0.28;0.28;;;7.90;99.90;;;;;;5034325;28;20091;-76
2022/12/02 08:59:44;;;;;;;0.30;0.30;;;7.90;99.90;;;;;;5033418;28;20032;-76
2022/12/02 09:02:09;;;;;;;1.30;1.30;;;7.90;99.90;;;;;;5034983;28;20026;-76
2022/12/02 09:04:35;;;;;;;0.20;0.20;;;7.90;99.90;;;;;;5034530;28;20032;-76
2022/12/02 09:07:00;;;;;;;0.30;0.30;;;7.80;99.90;;;;;;5034321;28;20030;-75
2022/12/02 09:09:26;;;;;;;0.43;0.43;;;7.80;99.90;;;;;;5034330;28;20026;-75
2022/12/02 09:11:52;;;;;;;0.30;0.30;;;7.90;99.90;;;;;;5035264;28;20043;-76
2022/12/02 09:14:17;;;;;;;0.30;0.30;;;7.90;99.90;;;;;;5034151;28;20068;-75
2022/12/02 09:16:43;;;;;;;0.40;0.40;;;7.90;99.90;;;;;;5034132;28;20092;-75
2022/12/02 09:19:09;;;;;;;2.80;2.70;;;7.90;99.90;;;;;;5032571;28;20084;-74
2022/12/02 09:21:34;;;;;;;4.15;0.85;;;7.90;99.90;;;;;;5033963;28;20489;-77
2022/12/02 09:24:00;;;;;;;0.30;0.30;;;8.00;99.90;;;;;;5034363;28;20038;-78
2022/12/02 09:26:26;;;;;;;0.25;0.25;;;8.00;99.90;;;;;;5034025;28;20040;-76
2022/12/02 09:28:51;;;;;;;0.30;0.30;;;7.90;99.90;;;;;;5034569;28;20531;-77
2022/12/02 09:31:17;;;;;;;0.30;0.30;;;7.90;99.90;;;;;;5033926;28;20022;-77
2022/12/02 09:33:43;;;;;;;0.30;0.30;;;8.00;99.90;;;;;;5033629;28;20037;-76
2022/12/02 09:36:08;;;;;;;0.20;0.20;;;8.00;99.90;;;;;;5045368;28;20314;-76
2022/12/02 09:38:34;;;;;;;1.60;1.58;;;7.90;99.90;;;;;;5047420;28;20013;-77
2022/12/02 09:41:00;;;;;;;0.40;0.40;;;7.90;99.90;;;;;;5042922;28;20389;-76
2022/12/02 09:43:30;;;;;;;0.30;0.30;;;7.80;99.90;;;;;;5032932;28;20017;-76
2022/12/02 09:45:56;;;;;;;0.98;0.98;;;7.80;99.90;;;;;;5033669;28;20622;-77
2022/12/02 09:48:22;;;;;;;0.63;0.47;;;7.80;99.90;;;;;;5036366;28;20033;-78
2022/12/02 09:50:50;;;;;;;0.40;0.40;;;7.70;99.90;;;;;;5040896;28;20652;-77
2022/12/02 09:53:17;;;;;;;0.30;0.30;;;7.80;99.90;;;;;;5033643;28;20025;-77
2022/12/02 09:55:43;;;;;;;0.20;0.20;;;7.80;99.90;;;;;;5052668;28;20029;-78
2022/12/02 09:58:16;;;;;;;0.38;0.38;;;7.80;99.90;;;;;;5051361;28;20453;-78
2022/12/02 10:00:43;;;;;;;0.40;0.40;;;7.80;99.90;;;;;;5039530;28;20385;-79
2022/12/02 10:03:11;;;;;;;0.30;0.30;;;7.90;99.90;;;;;;5051389;28;20036;-77
2022/12/02 10:05:37;;;;;;;0.30;0.30;;;7.90;99.90;;;;;;5047240;28;20075;-79
2022/12/02 10:08:06;;;;;;;0.55;0.55;;;8.00;99.90;;;;;;5050698;28;20025;-78
2022/12/02 10:10:39;;;;;;;0.28;0.28;;;8.00;99.90;;;;;;5046051;28;20249;-78
2022/12/02 10:13:05;;;;;;;0.38;0.38;;;8.10;99.90;;;;;;5037810;28;20091;-78
2022/12/02 10:15:31;;;;;;;0.30;0.30;;;8.10;99.90;;;;;;5039456;28;20473;-78
2022/12/02 10:18:01;;;;;;;0.30;0.30;;;8.10;99.90;;;;;;5048225;28;20021;-78
2022/12/02 10:20:27;;;;;;;0.68;0.68;;;8.20;99.90;;;;;;5053287;28;20025;-76
2022/12/02 10:23:11;;;;;;;0.28;0.28;;;8.30;99.90;;;;;;5035073;28;20282;-73
2022/12/02 10:25:39;;;;;;;0.30;0.30;;;8.30;99.90;;;;;;5033321;28;20029;-77
2022/12/02 10:28:17;;;;;;;20.38;3.05;;;8.30;99.90;;;;;;5033842;28;20029;-78
2022/12/02 10:31:03;;;;;;;1.30;1.25;;;8.40;99.90;;;;;;5036937;28;20116;-77
2022/12/02 10:33:31;;;;;;;0.30;0.30;;;8.50;99.90;;;;;;5033041;28;20032;-77
2022/12/02 10:35:59;;;;;;;1.02;1.02;;;8.50;99.90;;;;;;5032437;28;20021;-78
2022/12/02 10:38:33;;;;;;;0.45;0.45;;;8.50;99.90;;;;;;5037927;28;20492;-78
2022/12/02 10:41:18;;;;;;;2.70;2.53;;;8.50;99.90;;;;;;5032236;28;20045;-75
2022/12/02 10:44:05;;;;;;;0.20;0.20;;;8.30;99.90;;;;;;5038534;28;20043;-76
2022/12/02 10:46:32;;;;;;;0.20;0.20;;;8.20;99.90;;;;;;5036749;28;20124;-76
2022/12/02 10:49:29;;;;;;;0.50;0.50;;;8.80;99.90;;;;;;5032242;28;20033;-75
2022/12/02 10:51:58;;;;;;;0.30;0.30;;;9.20;99.90;;;;;;5044128;28;20055;-75
2022/12/02 10:54:30;;;;;;;0.25;0.25;;;9.50;99.90;;;;;;5040488;28;20025;-75
2022/12/02 10:56:58;;;;;;;0.30;0.30;;;9.70;99.90;;;;;;5047260;28;20075;-75
2022/12/02 10:59:24;;;;;;;0.30;0.30;;;9.70;99.90;;;;;;5031286;28;20025;-74
2022/12/02 11:01:50;;;;;;;0.30;0.30;;;9.80;99.90;;;;;;5039863;28;20025;-73
2022/12/02 11:04:16;;;;;;;0.30;0.30;;;9.80;99.90;;;;;;5052267;28;20021;-75
2022/12/02 11:06:43;;;;;;;0.77;0.77;;;9.90;99.90;;;;;;5039198;28;20039;-72
2022/12/02 11:09:22;;;;;;;0.30;0.30;;;9.90;99.90;;;;;;5031583;28;20029;-73
2022/12/02 11:11:49;;;;;;;0.20;0.20;;;10.00;99.90;;;;;;5032806;28;20025;-73
2022/12/02 11:14:39;;;;;;;0.30;0.30;;;10.00;99.90;;;;;;5039294;28;20168;-72
2022/12/02 11:17:09;;;;;;;0.30;0.30;;;10.00;99.90;;;;;;5033109;28;20618;-72
2022/12/02 11:19:36;;;;;;;0.30;0.30;;;10.10;99.90;;;;;;5037153;28;20102;-74
2022/12/02 11:22:02;;;;;;;0.30;0.30;;;10.20;99.90;;;;;;5045138;28;20029;-72
2022/12/02 11:24:31;;;;;;;0.30;0.30;;;10.20;99.90;;;;;;5038849;28;20123;-73
2022/12/02 11:27:01;;;;;;;0.55;0.55;;;10.20;99.90;;;;;;5031039;28;20060;-73
2022/12/02 11:29:28;;;;;;;0.30;0.30;;;10.30;99.90;;;;;;5032492;28;20017;-73
2022/12/02 11:32:25;;;;;;;0.30;0.30;;;10.30;99.90;;;;;;5038332;28;20022;-73
2022/12/02 11:34:52;;;;;;;0.30;0.30;;;10.30;99.90;;;;;;5037496;28;20084;-73
2022/12/02 11:37:27;;;;;;;0.30;0.30;;;10.30;99.90;;;;;;5037125;28;20643;-73
2022/12/02 11:39:58;;;;;;;0.30;0.30;;;10.20;99.90;;;;;;5039816;28;20025;-73
2022/12/02 11:42:29;;;;;;;2.88;2.67;;;10.30;99.90;;;;;;5043263;28;20028;-75
2022/12/02 11:45:17;;;;;;;0.63;0.60;;;10.10;99.90;;;;;;5036154;28;20547;-73
2022/12/02 11:47:43;;;;;;;0.93;0.93;;;10.10;99.90;;;;;;5031502;28;20021;-73
2022/12/02 11:50:21;;;;;;;0.30;0.30;;;10.00;99.90;;;;;;5036146;28;20043;-72
2022/12/02 11:52:59;;;;;;;0.30;0.30;;;10.00;99.90;;;;;;5035667;28;20091;-74
2022/12/02 11:55:34;;;;;;;0.40;0.40;;;10.00;99.90;;;;;;5041001;28;20150;-74
2022/12/02 11:58:02;;;;;;;0.47;0.47;;;10.00;99.90;;;;;;5046426;28;20040;-74
2022/12/02 12:00:34;;;;;;;1.98;1.40;;;10.00;99.90;;;;;;5038626;28;20037;-74
2022/12/02 12:03:12;;;;;;;0.50;0.50;;;10.00;99.90;;;;;;5031399;28;20537;-73
2022/12/02 12:05:40;;;;;;;3.95;1.58;;;10.00;99.90;;;;;;5032062;28;20127;-72
2022/12/02 12:08:06;;;;;;;0.52;0.52;;;10.10;99.90;;;;;;5031159;28;20037;-72
2022/12/02 12:10:35;;;;;;;0.40;0.40;;;10.30;99.90;;;;;;5031876;28;20028;-73
2022/12/02 12:13:22;;;;;;;0.20;0.20;;;10.30;99.90;;;;;;5033702;28;20039;-74
2022/12/02 12:15:51;;;;;;;0.30;0.30;;;10.40;99.90;;;;;;5032430;28;20406;-73
2022/12/02 12:18:53;;;;;;;0.43;0.43;;;10.50;99.90;;;;;;5037629;28;20038;-74
2022/12/02 12:21:31;;;;;;;0.20;0.20;;;10.40;99.90;;;;;;5057151;28;20167;-72
2022/12/02 12:26:53;;;;;;;0.30;0.30;;;10.60;99.90;;;;;;5036465;28;20033;-73
2022/12/02 12:29:21;;;;;;;0.30;0.30;;;10.50;99.90;;;;;;5038547;28;20100;-72
2022/12/02 12:31:47;;;;;;;0.40;0.40;;;10.50;99.90;;;;;;5038902;28;20108;-72
2022/12/02 12:34:16;;;;;;;0.30;0.30;;;10.40;99.90;;;;;;5036028;28;20103;-72
2022/12/02 12:36:42;;;;;;;0.30;0.30;;;10.30;99.90;;;;;;5035827;28;20017;-73
2022/12/02 12:39:09;;;;;;;0.30;0.30;;;10.20;99.90;;;;;;5038386;28;20044;-72
2022/12/02 12:41:35;;;;;;;0.30;0.30;;;10.20;99.90;;;;;;5041481;28;20067;-72
2022/12/02 12:44:01;;;;;;;1.13;0.85;;;10.10;99.90;;;;;;5040418;28;20505;-72
2022/12/02 12:46:27;;;;;;;0.25;0.25;;;10.10;99.90;;;;;;5039361;28;20049;-72
2022/12/02 12:48:52;;;;;;;0.25;0.25;;;10.00;99.90;;;;;;5042931;28;20423;-73
2022/12/02 12:51:18;;;;;;;0.30;0.30;;;10.00;99.90;;;;;;5045779;28;20036;-73
2022/12/02 12:53:44;;;;;;;2.00;1.95;;;9.90;99.90;;;;;;5038678;28;20017;-71
2022/12/02 12:56:09;;;;;;;0.30;0.30;;;9.90;99.90;;;;;;5040693;28;20037;-71
2022/12/02 12:58:35;;;;;;;6.40;5.93;;;9.90;99.90;;;;;;5046395;28;20496;-71
2022/12/02 13:01:01;;;;;;;0.50;0.50;;;9.90;99.90;;;;;;5031005;28;20033;-72
2022/12/02 13:03:27;;;;;;;4.10;2.10;;;10.10;99.90;;;;;;5030653;28;20458;-72
2022/12/02 13:05:52;;;;;;;0.40;0.40;;;10.50;99.90;;;;;;5030515;28;20116;-71
2022/12/02 13:08:18;;;;;;;0.63;0.60;;;10.70;99.90;;;;;;5033740;28;20039;-71
2022/12/02 13:10:44;;;;;;;1.65;0.95;;;11.40;99.90;;;;;;5046475;28;20465;-73
2022/12/02 13:13:12;;;;;;;0.40;0.40;;;12.70;99.90;;;;;;5029113;28;20497;-72